DW1549 Fauske NO current weather conditions

sailwx.info

Wind from 125 at 14 knots gusting 17

Air temperature -1.1° C
Dewpoint -4.6° C

Last reported at 2017-Dec-16 15:58 UTC.
Time now 2017-Dec-16 17:02 UTC

Location: N 67°16' E 015°25'.
View on Google Maps.

See reports from other nearby stations

  
Tides and Currents Weather Stations Pressure Air Temp Water Temp Dewpoint Dewpoint Depression Visibility Wind Speed Wind Dir Waves Ship Positions
date/time (UTC)wind fromknots sea level pressurealtimeterstation pressurevisibilityair tempwater tempwave heightnotes
2017-Dec-16 15:58 125 14 gusting 17 -1.1
2017-Dec-16 15:48 135 8 gusting 17 -1.1
2017-Dec-16 15:38 147 8 gusting 17 -1.1
2017-Dec-16 15:28 121 10 gusting 17 -1.1
2017-Dec-16 15:08 119 9 gusting 15 -1.7
2017-Dec-16 14:58 128 11 gusting 14 -1.7
2017-Dec-16 14:48 129 10 gusting 13 -1.7
2017-Dec-16 14:38 127 11 gusting 13 -1.7
2017-Dec-16 13:38 134 6 gusting 15 -1.7
2017-Dec-16 13:18 122 11 gusting 15 -1.7
2017-Dec-16 13:08 128 9 gusting 15 -1.1
2017-Dec-16 12:48 125 6 gusting 11 -1.1
2017-Dec-16 12:38 123 7 gusting 12 -1.7
2017-Dec-16 12:28 129 7 gusting 11 -1.7
2017-Dec-16 12:18 126 6 gusting 12 -1.7
2017-Dec-16 12:08 129 8 gusting 13 -1.7
2017-Dec-16 11:48 142 4 gusting 11 -1.7
2017-Dec-16 11:38 128 7 gusting 12 -2.2
2017-Dec-16 11:18 116 2 gusting 10 -1.7
2017-Dec-16 11:08 116 -1.7
2017-Dec-16 10:58 117 0 gusting 6 -2.2
2017-Dec-16 10:38 124 0 gusting 7 -1.7
2017-Dec-16 10:28 121 5 gusting 12 -1.7
2017-Dec-16 10:18 123 6 gusting 10 -1.7
2017-Dec-16 10:08 121 2 gusting 7 -1.7
2017-Dec-16 09:58 120 0 gusting 8 -1.7
2017-Dec-16 09:48 118 1 gusting 8 -2.2
2017-Dec-16 09:38 118 -2.2
2017-Dec-16 09:28 118 -2.2
2017-Dec-16 09:18 118 1 gusting 10 -2.2
2017-Dec-16 08:58 122 1 gusting 10 -2.8
2017-Dec-16 08:48 108 -3.3
2017-Dec-16 08:38 109 -2.8
2017-Dec-16 08:28 109 0 gusting 10 -2.8
2017-Dec-16 08:18 121 -3.3
2017-Dec-16 08:08 121 -2.8
2017-Dec-16 07:58 121 2 gusting 12 -2.2
2017-Dec-16 07:48 099 1 gusting 6 -2.8
2017-Dec-16 07:28 108 -2.2
2017-Dec-16 06:48 113 -2.8
2017-Dec-16 06:38 115 1 gusting 6 -2.2
2017-Dec-16 06:28 115 1 gusting 10 -2.2
2017-Dec-16 06:18 121 5 gusting 10 -2.2
2017-Dec-16 06:08 130 0 gusting 8 -2.2
2017-Dec-16 05:38 119 1 gusting 6 -2.2
2017-Dec-16 05:18 137 7 gusting 13 -2.2
2017-Dec-16 05:08 133 10 gusting 14 -2.2
2017-Dec-16 04:58 142 6 gusting 12 -2.2
2017-Dec-16 04:48 153 7 gusting 12 -2.2
2017-Dec-16 04:38 153 7 gusting 12 -2.2
2017-Dec-16 04:28 156 6 gusting 12 -2.2
2017-Dec-16 04:18 154 5 gusting 10 -2.8
2017-Dec-16 04:08 151 6 gusting 10 -2.8
2017-Dec-16 03:58 152 4 gusting 13 -2.8
2017-Dec-16 03:48 161 0 gusting 5 -3.3
2017-Dec-16 03:38 161 -3.3
2017-Dec-16 03:28 161 -3.3
2017-Dec-16 03:18 161 -3.3
2017-Dec-16 03:08 161 -3.3
2017-Dec-16 02:58 161 0 gusting 6 -3.3
2017-Dec-16 02:28 178 -3.9
2017-Dec-16 02:08 172 0 gusting 7 -3.3
2017-Dec-16 01:38 168 0 gusting 6 -5.0
2017-Dec-16 01:28 168 1 gusting 6 -5.0
2017-Dec-16 01:08 168 -5.6
2017-Dec-16 00:58 168 -5.6
2017-Dec-16 00:38 168 -5.6
2017-Dec-16 00:28 168 -6.1
2017-Dec-16 00:18 168 -6.1
2017-Dec-15 23:58 168 -6.1
2017-Dec-15 23:48 168 -6.1
2017-Dec-15 23:28 168 -6.7
2017-Dec-15 23:18 168 -6.7
2017-Dec-15 23:08 168 -6.7
2017-Dec-15 22:48 168 -6.7
2017-Dec-15 22:38 168 -6.7
2017-Dec-15 22:28 168 -6.7
2017-Dec-15 22:18 168 -6.7
2017-Dec-15 21:48 168 -6.7
2017-Dec-15 21:38 168 -6.7
2017-Dec-15 21:08 168 -6.7
2017-Dec-15 20:58 168 -6.1
2017-Dec-15 20:48 168 -6.1
2017-Dec-15 20:38 168 -6.1
2017-Dec-15 20:28 168 -5.6
2017-Dec-15 20:18 168 -6.1
2017-Dec-15 20:08 168 -6.1
2017-Dec-15 19:58 168 -6.1
2017-Dec-15 19:48 168 -6.7
2017-Dec-15 19:18 168 -6.7
2017-Dec-15 19:08 168 -6.1
2017-Dec-15 18:58 168 -6.1
2017-Dec-15 18:38 168 -6.1
2017-Dec-15 18:28 168 -5.6
2017-Dec-15 17:58 168 -5.6
2017-Dec-15 17:48 168 -5.0
2017-Dec-15 17:38 168 -5.0
2017-Dec-15 17:08 168 5 gusting 7 -4.4
2017-Dec-15 16:58 175 -4.4
2017-Dec-15 16:48 175 0 gusting 4 -4.4
2017-Dec-15 16:38 175 -4.4
2017-Dec-15 16:28 175 -4.4
2017-Dec-15 16:18 175 -4.4
2017-Dec-15 16:08 175 -4.4
2017-Dec-15 15:58 175 -5.0
2017-Dec-15 15:18 175 -5.0
2017-Dec-15 15:08 175 -5.0
2017-Dec-15 14:58 175 -4.4
2017-Dec-15 14:48 175 -4.4
2017-Dec-15 14:38 175 -4.4
2017-Dec-15 14:28 175 -5.0
2017-Dec-15 14:18 175 -5.0
2017-Dec-15 14:08 175 -5.0
2017-Dec-15 13:38 175 -5.6
2017-Dec-15 13:28 175 -5.6
2017-Dec-15 13:18 175 -5.6
2017-Dec-15 13:08 175 -5.6
2017-Dec-15 12:58 175 -6.1
2017-Dec-15 12:48 175 -6.1
2017-Dec-15 12:38 175 -6.1
2017-Dec-15 12:28 175 -6.1
2017-Dec-15 12:18 175 -6.1
2017-Dec-15 12:08 175 -6.1
2017-Dec-15 11:58 175 -6.1
2017-Dec-15 11:18 175 -5.6
2017-Dec-15 10:58 175 -6.1
2017-Dec-15 10:48 175 -6.1
2017-Dec-15 10:38 175 -6.1
2017-Dec-15 10:28 175 -6.1
2017-Dec-15 10:18 175 -5.6
2017-Dec-15 10:08 175 -5.6
2017-Dec-15 09:58 175 -5.6
2017-Dec-15 09:48 175 -5.6
2017-Dec-15 09:38 175 -5.6
2017-Dec-15 09:28 175 -5.6
2017-Dec-15 09:18 175 -5.6
2017-Dec-15 09:08 175 -5.6
2017-Dec-15 08:58 175 -5.6
2017-Dec-15 08:48 175 -5.0
2017-Dec-15 08:38 175 -5.0
2017-Dec-15 08:28 175 -5.0
2017-Dec-15 08:08 175 -4.4
2017-Dec-15 07:58 175 -5.0
2017-Dec-15 07:18 175 -4.4
2017-Dec-15 06:58 175 -4.4
2017-Dec-15 06:48 175 -3.9
2017-Dec-15 06:38 175 -3.9
2017-Dec-15 06:28 175 -3.9
2017-Dec-15 06:18 175 -3.9
2017-Dec-15 06:08 175 -3.9
2017-Dec-15 05:58 175 -3.9
2017-Dec-15 05:48 175 -3.9
2017-Dec-15 05:38 175 -3.3
2017-Dec-15 05:18 175 -3.9
2017-Dec-15 04:58 175 -3.9
2017-Dec-15 04:48 175 -3.9
2017-Dec-15 04:38 175 -3.9
2017-Dec-15 04:28 175 -3.9
2017-Dec-15 04:18 175 -3.9
2017-Dec-15 04:08 175 -3.9
2017-Dec-15 03:58 175 -3.9
2017-Dec-15 03:48 175 -3.9
2017-Dec-15 03:38 175 -3.9
2017-Dec-15 03:28 175 -3.9
2017-Dec-15 03:08 175 -3.9
2017-Dec-15 02:58 175 -3.9
2017-Dec-15 02:48 175 -3.9
2017-Dec-15 02:38 175 -3.9
2017-Dec-15 02:28 175 -3.9
2017-Dec-15 02:18 175 -3.9
2017-Dec-15 02:08 175 -3.9
2017-Dec-15 01:58 175 -3.9
2017-Dec-15 01:48 175 -3.9
2017-Dec-15 01:38 175 -4.4
2017-Dec-15 01:28 175 -4.4
2017-Dec-15 00:58 175 -4.4
2017-Dec-15 00:48 175 -4.4
2017-Dec-15 00:38 175 -4.4
2017-Dec-14 18:08 175 -4.4
2017-Dec-14 17:58 175 -3.9
2017-Dec-14 17:48 175 -3.9
2017-Dec-14 17:18 175 -4.4
2017-Dec-14 17:08 175 -4.4